Time;durP1;ratioP1;P1;durP2;ratioP2;P2;SDS_P1;SDS_P2;PMS_P1;PMS_P2;Temp;Humidity;BMP_temperature;BMP_pressure;BME280_temperature;BME280_humidity;BME280_pressure;Samples;Min_cycle;Max_cycle;Signal;HPM_P1;HPM_P2
2021/12/15 00:00:57;;;;;;;75.65;47.97;;;;;;;;;;6251351;28;20059;-65
2021/12/15 00:03:59;;;;;;;68.90;45.38;;;;;;;;;;6261987;28;20109;-65
2021/12/15 00:07:01;;;;;;;67.88;44.90;;;;;;;;;;6254778;28;20056;-65
2021/12/15 00:10:04;;;;;;;69.93;43.38;;;;;;;;;;6265569;28;20041;-65
2021/12/15 00:13:06;;;;;;;68.72;44.05;;;;;;;;;;6254431;28;20538;-65
2021/12/15 00:16:10;;;;;;;65.30;42.80;;;;;;;;;;6251148;28;20194;-65
2021/12/15 00:19:12;;;;;;;65.80;43.10;;;;;;;;;;6262844;28;20068;-65
2021/12/15 00:22:14;;;;;;;63.50;41.40;;;;;;;;;;6250974;28;20052;-65
2021/12/15 00:25:16;;;;;;;64.32;40.35;;;;;;;;;;6256361;28;20139;-65
2021/12/15 00:28:17;;;;;;;58.05;39.70;;;;;;;;;;6260205;28;20098;-65
2021/12/15 00:31:21;;;;;;;61.92;37.72;;;;;;;;;;6250597;28;20526;-65
2021/12/15 00:34:23;;;;;;;60.45;38.90;;;;;;;;;;6262030;28;20052;-65
2021/12/15 00:37:24;;;;;;;63.45;37.10;;;;;;;;;;6253565;28;20423;-65
2021/12/15 00:40:26;;;;;;;59.38;37.55;;;;;;;;;;6256523;28;20086;-65
2021/12/15 00:43:28;;;;;;;55.63;37.05;;;;;;;;;;6262745;28;20063;-65
2021/12/15 00:46:31;;;;;;;60.35;37.03;;;;;;;;;;6249675;28;20443;-65
2021/12/15 00:49:33;;;;;;;57.42;37.85;;;;;;;;;;6262598;28;20499;-65
2021/12/15 00:52:36;;;;;;;52.03;35.58;;;;;;;;;;6252663;28;20107;-65
2021/12/15 00:55:38;;;;;;;55.38;36.65;;;;;;;;;;6253564;28;20081;-65
2021/12/15 00:58:39;;;;;;;55.42;37.08;;;;;;;;;;6267816;28;20088;-65
2021/12/15 01:01:43;;;;;;;57.97;36.05;;;;;;;;;;6249526;28;20186;-65
2021/12/15 01:04:44;;;;;;;58.65;35.60;;;;;;;;;;6265840;28;20614;-65
2021/12/15 01:07:47;;;;;;;57.80;35.45;;;;;;;;;;6253417;28;20044;-65
2021/12/15 01:11:06;;;;;;;53.63;34.67;;;;;;;;;;6258258;28;20142;-65
2021/12/15 01:20:51;;;;;;;55.00;34.20;;;;;;;;;;6253686;28;20143;-65
2021/12/15 01:23:52;;;;;;;49.63;32.72;;;;;;;;;;6265338;28;20500;-65
2021/12/15 01:26:54;;;;;;;48.45;33.67;;;;;;;;;;6253585;28;20207;-65
2021/12/15 01:29:56;;;;;;;53.03;32.90;;;;;;;;;;6262646;28;20424;-65
2021/12/15 01:33:00;;;;;;;53.55;33.70;;;;;;;;;;6246172;28;20129;-65
2021/12/15 01:36:04;;;;;;;55.83;33.85;;;;;;;;;;6249271;28;20139;-65
2021/12/15 01:39:06;;;;;;;46.88;31.42;;;;;;;;;;6262815;28;20040;-65
2021/12/15 01:42:08;;;;;;;52.78;31.65;;;;;;;;;;6252565;28;20062;-65
2021/12/15 01:48:31;;;;;;;49.65;30.98;;;;;;;;;;6255438;28;20479;-64
2021/12/15 01:51:33;;;;;;;49.23;29.70;;;;;;;;;;6249239;28;20183;-65
2021/12/15 01:54:36;;;;;;;51.45;30.73;;;;;;;;;;6262722;28;20554;-65
2021/12/15 01:57:40;;;;;;;43.88;28.80;;;;;;;;;;6250657;28;20053;-65
2021/12/15 02:00:43;;;;;;;;;;;;;;;;;;6250000;28;20048;-64
2021/12/15 02:03:46;;;;;;;47.70;29.13;;;;;;;;;;6257388;28;19931;-65
2021/12/15 02:06:49;;;;;;;52.88;30.52;;;;;;;;;;6249598;28;20129;-65
2021/12/15 02:10:05;;;;;;;47.10;30.75;;;;;;;;;;6260640;28;20049;-66
2021/12/15 02:13:09;;;;;;;43.55;29.20;;;;;;;;;;6257598;28;20056;-65
2021/12/15 02:16:11;;;;;;;52.50;31.92;;;;;;;;;;6252276;28;20053;-65
2021/12/15 02:19:14;;;;;;;48.15;31.02;;;;;;;;;;6265875;28;20198;-65
2021/12/15 02:22:17;;;;;;;50.58;32.22;;;;;;;;;;6255476;28;20396;-65
2021/12/15 02:25:19;;;;;;;47.75;30.02;;;;;;;;;;6259845;28;20094;-65
2021/12/15 02:28:20;;;;;;;50.55;31.83;;;;;;;;;;6268555;28;20174;-65
2021/12/15 02:31:36;;;;;;;48.35;31.85;;;;;;;;;;6249935;28;20033;-65
2021/12/15 02:37:58;;;;;;;48.92;31.20;;;;;;;;;;6254304;28;20492;-65
2021/12/15 02:41:07;;;;;;;49.63;31.15;;;;;;;;;;6255664;28;20195;-65
2021/12/15 02:44:12;;;;;;;47.00;28.92;;;;;;;;;;6265273;28;20049;-65
2021/12/15 02:47:15;;;;;;;46.90;30.13;;;;;;;;;;6250067;28;20116;-65
2021/12/15 02:50:20;;;;;;;42.28;28.92;;;;;;;;;;6255959;28;20168;-65
2021/12/15 02:53:22;;;;;;;;;;;;;;;;;;6258930;28;20051;-65
2021/12/15 02:56:24;;;;;;;44.15;25.55;;;;;;;;;;6251935;28;20207;-64
2021/12/15 02:59:31;;;;;;;42.17;25.45;;;;;;;;;;6263155;28;20126;-65
2021/12/15 03:05:56;;;;;;;41.13;25.45;;;;;;;;;;6248064;28;20526;-65
2021/12/15 03:09:14;;;;;;;39.28;25.63;;;;;;;;;;6248690;28;20056;-65
2021/12/15 03:15:36;;;;;;;40.38;24.52;;;;;;;;;;6252090;28;20782;-64
2021/12/15 03:18:38;;;;;;;45.20;27.48;;;;;;;;;;6250467;28;20124;-65
2021/12/15 03:21:40;;;;;;;43.10;24.85;;;;;;;;;;6232380;28;20560;-65
2021/12/15 03:24:43;;;;;;;43.35;25.50;;;;;;;;;;6245864;28;20564;-65
2021/12/15 03:34:41;;;;;;;37.88;23.73;;;;;;;;;;6244656;28;20445;-65
2021/12/15 03:37:45;;;;;;;43.05;24.63;;;;;;;;;;6229324;28;20895;-65
2021/12/15 03:40:48;;;;;;;;;;;;;;;;;;6232201;28;20065;-65
2021/12/15 03:43:49;;;;;;;42.97;24.63;;;;;;;;;;6243562;28;20006;-65
2021/12/15 03:46:51;;;;;;;41.53;24.70;;;;;;;;;;6225637;28;20772;-65
2021/12/15 03:49:55;;;;;;;37.42;23.92;;;;;;;;;;6239982;28;20041;-65
2021/12/15 03:52:57;;;;;;;41.73;23.63;;;;;;;;;;6231556;28;20148;-65
2021/12/15 03:56:01;;;;;;;37.80;22.92;;;;;;;;;;6246317;28;20071;-65
2021/12/15 03:59:03;;;;;;;36.75;22.30;;;;;;;;;;6267782;28;20084;-65
2021/12/15 04:02:05;;;;;;;35.92;21.85;;;;;;;;;;6250990;28;20045;-66
2021/12/15 04:05:08;;;;;;;38.28;21.75;;;;;;;;;;6260990;28;20218;-65
2021/12/15 04:08:10;;;;;;;41.08;22.73;;;;;;;;;;6260529;28;20094;-65
2021/12/15 04:11:16;;;;;;;38.00;21.85;;;;;;;;;;6258340;28;20508;-65
2021/12/15 04:14:21;;;;;;;40.00;23.13;;;;;;;;;;6265743;28;20132;-65
2021/12/15 04:17:31;;;;;;;39.75;23.48;;;;;;;;;;6248916;28;20136;-65
2021/12/15 04:20:35;;;;;;;37.85;23.15;;;;;;;;;;6254582;28;20049;-65
2021/12/15 04:23:37;;;;;;;39.78;22.05;;;;;;;;;;6263444;28;20053;-65
2021/12/15 04:26:40;;;;;;;39.00;22.83;;;;;;;;;;6254771;28;20052;-65
2021/12/15 04:29:44;;;;;;;40.20;22.73;;;;;;;;;;6266153;28;20045;-65
2021/12/15 04:32:47;;;;;;;40.17;23.00;;;;;;;;;;6246702;28;20508;-65
2021/12/15 04:35:49;;;;;;;36.33;21.83;;;;;;;;;;6254993;28;20033;-65
2021/12/15 04:38:51;;;;;;;37.17;22.38;;;;;;;;;;6239724;28;20057;-65
2021/12/15 04:41:56;;;;;;;45.78;23.60;;;;;;;;;;6234951;28;20126;-65
2021/12/15 04:44:58;;;;;;;40.15;23.17;;;;;;;;;;6243114;28;20518;-65
2021/12/15 04:48:00;;;;;;;39.53;24.27;;;;;;;;;;6225015;28;20049;-66
2021/12/15 04:51:02;;;;;;;39.72;24.35;;;;;;;;;;6229129;28;20936;-65
2021/12/15 04:54:03;;;;;;;39.88;22.17;;;;;;;;;;6239003;28;20500;-65
2021/12/15 04:57:06;;;;;;;39.70;22.63;;;;;;;;;;6231472;28;20442;-65
2021/12/15 05:00:13;;;;;;;32.45;20.08;;;;;;;;;;6235007;28;20053;-66
2021/12/15 05:03:15;;;;;;;37.63;23.05;;;;;;;;;;6229160;28;20559;-65
2021/12/15 05:06:17;;;;;;;39.83;23.60;;;;;;;;;;6229989;28;20045;-65
2021/12/15 05:09:18;;;;;;;39.00;23.38;;;;;;;;;;6240552;28;20121;-65
2021/12/15 05:12:24;;;;;;;42.00;23.92;;;;;;;;;;6231729;28;20099;-65
2021/12/15 05:15:26;;;;;;;39.83;22.33;;;;;;;;;;6238039;28;20109;-65
2021/12/15 05:18:27;;;;;;;36.78;22.35;;;;;;;;;;6230340;28;20517;-65
2021/12/15 05:21:30;;;;;;;40.10;22.88;;;;;;;;;;6229829;28;20083;-65
2021/12/15 05:24:32;;;;;;;40.92;23.02;;;;;;;;;;6239601;28;20054;-65
2021/12/15 05:27:37;;;;;;;43.33;24.83;;;;;;;;;;6232092;28;20041;-65
2021/12/15 05:30:39;;;;;;;39.25;23.33;;;;;;;;;;6228374;28;20195;-65
2021/12/15 05:33:40;;;;;;;46.58;25.70;;;;;;;;;;6234789;28;20102;-65
2021/12/15 05:36:42;;;;;;;48.08;25.75;;;;;;;;;;6226878;28;20176;-65
2021/12/15 05:39:45;;;;;;;46.30;26.05;;;;;;;;;;6239321;28;20049;-65
2021/12/15 05:42:49;;;;;;;43.05;27.45;;;;;;;;;;6228421;28;20101;-65
2021/12/15 05:45:51;;;;;;;45.70;27.48;;;;;;;;;;6224167;28;20041;-65
2021/12/15 05:48:53;;;;;;;47.08;27.65;;;;;;;;;;6234692;28;20088;-65
2021/12/15 05:51:55;;;;;;;48.58;26.77;;;;;;;;;;6227474;28;20234;-66
2021/12/15 05:54:57;;;;;;;44.10;27.15;;;;;;;;;;6238831;28;20053;-65
2021/12/15 05:58:00;;;;;;;45.80;28.98;;;;;;;;;;6229545;28;20045;-65
2021/12/15 06:01:02;;;;;;;45.38;27.63;;;;;;;;;;6226790;28;20041;-65
2021/12/15 06:04:05;;;;;;;44.53;26.85;;;;;;;;;;6235173;28;20448;-65
2021/12/15 06:07:06;;;;;;;49.03;27.52;;;;;;;;;;6228784;28;20060;-65
2021/12/15 06:10:11;;;;;;;45.05;26.80;;;;;;;;;;6235143;28;20192;-65
2021/12/15 06:13:14;;;;;;;45.03;26.88;;;;;;;;;;6234381;28;20135;-65
2021/12/15 06:16:17;;;;;;;49.83;27.58;;;;;;;;;;6225152;28;20122;-65
2021/12/15 06:19:19;;;;;;;45.00;27.88;;;;;;;;;;6227822;28;20045;-65
2021/12/15 06:22:25;;;;;;;48.00;27.77;;;;;;;;;;6225817;28;20053;-65
2021/12/15 06:25:28;;;;;;;47.45;27.27;;;;;;;;;;6229584;28;20084;-64
2021/12/15 06:28:31;;;;;;;48.15;27.05;;;;;;;;;;6240691;28;20389;-64
2021/12/15 06:31:33;;;;;;;43.55;26.20;;;;;;;;;;6221903;28;20054;-65
2021/12/15 06:34:34;;;;;;;43.88;26.52;;;;;;;;;;6246095;28;20041;-65
2021/12/15 06:37:36;;;;;;;45.72;26.77;;;;;;;;;;6231630;28;20118;-65
2021/12/15 06:40:37;;;;;;;45.92;26.20;;;;;;;;;;6255173;28;20120;-64
2021/12/15 06:43:43;;;;;;;41.10;25.17;;;;;;;;;;6264415;28;20052;-65
2021/12/15 07:00:12;;;;;;;46.05;26.27;;;;;;;;;;6243003;28;20077;-65
2021/12/15 07:03:15;;;;;;;43.38;26.73;;;;;;;;;;6233806;28;20169;-65
2021/12/15 07:06:17;;;;;;;50.20;27.17;;;;;;;;;;6228282;28;20064;-65
2021/12/15 07:09:19;;;;;;;53.72;27.67;;;;;;;;;;6243847;28;20516;-65
2021/12/15 07:12:21;;;;;;;41.05;27.00;;;;;;;;;;6237269;28;20068;-65
2021/12/15 07:15:24;;;;;;;46.15;26.52;;;;;;;;;;6233996;28;20064;-65
2021/12/15 07:18:36;;;;;;;43.97;25.60;;;;;;;;;;6236897;28;20374;-65
2021/12/15 07:21:41;;;;;;;44.88;25.60;;;;;;;;;;6231594;28;20049;-66
2021/12/15 07:24:43;;;;;;;;;;;;;;;;;;6245225;28;20054;-65
2021/12/15 07:27:44;;;;;;;43.33;24.70;;;;;;;;;;6234431;28;19995;-65
2021/12/15 07:30:49;;;;;;;40.40;24.60;;;;;;;;;;6229533;28;20045;-66
2021/12/15 07:33:51;;;;;;;49.25;25.08;;;;;;;;;;6240884;28;20115;-66
2021/12/15 07:36:53;;;;;;;38.95;24.25;;;;;;;;;;6232924;28;20041;-65
2021/12/15 07:39:58;;;;;;;41.75;24.20;;;;;;;;;;6241824;28;20504;-65
2021/12/15 07:43:09;;;;;;;37.85;23.88;;;;;;;;;;6259372;28;20069;-65
2021/12/15 07:46:12;;;;;;;38.92;23.30;;;;;;;;;;6250651;28;20064;-66
2021/12/15 07:49:14;;;;;;;39.22;23.17;;;;;;;;;;6264346;28;20470;-66
2021/12/15 07:52:16;;;;;;;40.22;23.73;;;;;;;;;;6257945;28;20105;-65
2021/12/15 07:55:18;;;;;;;48.30;24.33;;;;;;;;;;6257663;28;20102;-66
2021/12/15 07:58:21;;;;;;;35.17;22.10;;;;;;;;;;6261815;28;20098;-65
2021/12/15 08:01:24;;;;;;;36.85;23.05;;;;;;;;;;6251885;28;20045;-65
2021/12/15 08:04:25;;;;;;;35.90;23.27;;;;;;;;;;6261926;28;20041;-65
2021/12/15 08:07:27;;;;;;;45.70;24.48;;;;;;;;;;6254601;28;20073;-65
2021/12/15 08:10:29;;;;;;;37.40;23.98;;;;;;;;;;6260366;28;20133;-66
2021/12/15 08:13:34;;;;;;;41.78;26.80;;;;;;;;;;6265595;28;20258;-66
2021/12/15 08:16:37;;;;;;;41.13;26.33;;;;;;;;;;6248112;28;20053;-66
2021/12/15 08:19:38;;;;;;;46.85;28.83;;;;;;;;;;6261994;28;20041;-65
2021/12/15 08:22:40;;;;;;;41.85;27.42;;;;;;;;;;6253682;28;20503;-65
2021/12/15 08:25:42;;;;;;;42.42;26.67;;;;;;;;;;6254053;28;20190;-66
2021/12/15 08:28:43;;;;;;;45.25;28.63;;;;;;;;;;6265241;28;20041;-66
2021/12/15 08:31:46;;;;;;;44.30;28.63;;;;;;;;;;6250027;28;20072;-65
2021/12/15 08:34:48;;;;;;;47.95;28.67;;;;;;;;;;6262848;28;20170;-66
2021/12/15 08:37:50;;;;;;;43.13;28.40;;;;;;;;;;6252289;28;20110;-67
2021/12/15 08:40:52;;;;;;;36.08;25.13;;;;;;;;;;6255788;28;20049;-66
2021/12/15 08:43:54;;;;;;;40.47;25.67;;;;;;;;;;6264254;28;20048;-66
2021/12/15 08:46:57;;;;;;;39.08;23.60;;;;;;;;;;6251140;28;20052;-65
2021/12/15 08:49:59;;;;;;;37.78;23.58;;;;;;;;;;6261976;28;20055;-65
2021/12/15 08:53:02;;;;;;;36.78;23.27;;;;;;;;;;6254185;28;20492;-66
2021/12/15 08:56:04;;;;;;;37.92;24.70;;;;;;;;;;6252373;28;20056;-66
2021/12/15 08:59:06;;;;;;;34.83;22.92;;;;;;;;;;6263888;28;20132;-65
2021/12/15 09:02:09;;;;;;;35.78;23.45;;;;;;;;;;6248624;28;20045;-66
2021/12/15 09:05:11;;;;;;;35.80;23.10;;;;;;;;;;6256731;28;20629;-66
2021/12/15 09:08:13;;;;;;;33.78;22.67;;;;;;;;;;6259602;28;20136;-66
2021/12/15 09:11:16;;;;;;;33.17;21.80;;;;;;;;;;6254933;28;20124;-65
2021/12/15 09:14:18;;;;;;;32.88;22.25;;;;;;;;;;6264953;28;20045;-65
2021/12/15 09:17:21;;;;;;;36.92;22.63;;;;;;;;;;6239643;28;20076;-66
2021/12/15 09:20:25;;;;;;;38.17;23.92;;;;;;;;;;6253096;28;20050;-66
2021/12/15 09:23:27;;;;;;;35.55;24.35;;;;;;;;;;6263182;28;20530;-66
2021/12/15 09:26:30;;;;;;;33.60;23.52;;;;;;;;;;6253620;28;20091;-66
2021/12/15 09:29:31;;;;;;;34.08;23.25;;;;;;;;;;6264569;28;20044;-65
2021/12/15 09:32:34;;;;;;;35.75;24.38;;;;;;;;;;6248102;28;20902;-66
2021/12/15 09:35:36;;;;;;;35.53;25.35;;;;;;;;;;6253828;28;20037;-66
2021/12/15 09:38:37;;;;;;;36.55;24.23;;;;;;;;;;6261880;28;20178;-66
2021/12/15 09:41:40;;;;;;;38.28;25.05;;;;;;;;;;6253157;28;20045;-65
2021/12/15 09:44:42;;;;;;;35.08;23.85;;;;;;;;;;6264818;28;20556;-65
2021/12/15 09:48:00;;;;;;;33.35;22.17;;;;;;;;;;6246813;28;20049;-66
2021/12/15 10:01:58;;;;;;;31.58;22.25;;;;;;;;;;6229858;28;20488;-66
2021/12/15 10:04:37;;;;;;;31.67;23.10;;;;;;;;;;6234718;28;20068;-66
2021/12/15 10:18:04;;;;;;;36.13;25.63;;;;;;;;;;6195133;28;20049;-66
2021/12/15 10:21:07;;;;;;;36.75;25.23;;;;;;;;;;6252501;28;20048;-66
2021/12/15 10:24:13;;;;;;;32.70;25.73;;;;;;;;;;6263453;28;20556;-66
2021/12/15 10:27:17;;;;;;;32.97;24.58;;;;;;;;;;6256397;28;20198;-66
2021/12/15 10:30:24;;;;;;;32.15;25.58;;;;;;;;;;6258298;28;20048;-66
2021/12/15 10:33:28;;;;;;;32.92;26.38;;;;;;;;;;6258896;28;20118;-66
2021/12/15 10:36:33;;;;;;;32.95;25.20;;;;;;;;;;6247319;28;20404;-66
2021/12/15 10:39:35;;;;;;;32.88;27.45;;;;;;;;;;6262065;28;20436;-66
2021/12/15 10:42:37;;;;;;;35.95;26.65;;;;;;;;;;6252415;28;20101;-66
2021/12/15 10:45:42;;;;;;;33.53;26.73;;;;;;;;;;6250318;28;20183;-66
2021/12/15 10:48:50;;;;;;;33.05;26.13;;;;;;;;;;6256343;28;20135;-66
2021/12/15 10:51:57;;;;;;;35.83;25.83;;;;;;;;;;6250060;28;20051;-66
2021/12/15 10:55:05;;;;;;;34.80;26.23;;;;;;;;;;6261785;28;20493;-66
2021/12/15 10:58:35;;;;;;;38.90;28.88;;;;;;;;;;6258489;28;20056;-66
2021/12/15 11:01:50;;;;;;;36.45;26.40;;;;;;;;;;6249256;28;20191;-66
2021/12/15 11:04:53;;;;;;;39.00;27.33;;;;;;;;;;6261330;28;20056;-66
2021/12/15 11:07:58;;;;;;;40.25;29.15;;;;;;;;;;6248607;28;20527;-67
2021/12/15 11:11:00;;;;;;;37.25;27.75;;;;;;;;;;6250729;28;20166;-66
2021/12/15 11:14:22;;;;;;;35.17;27.45;;;;;;;;;;6263491;28;20445;-65
2021/12/15 11:17:26;;;;;;;34.00;27.15;;;;;;;;;;6241969;28;20083;-66
2021/12/15 11:20:30;;;;;;;37.20;28.50;;;;;;;;;;6251381;28;20332;-65
2021/12/15 11:23:34;;;;;;;35.83;28.48;;;;;;;;;;6262160;28;20052;-66
2021/12/15 11:26:35;;;;;;;;;;;;;;;;;;6252472;28;20092;-66
2021/12/15 11:29:40;;;;;;;37.80;29.63;;;;;;;;;;6264624;28;19944;-66
2021/12/15 11:32:45;;;;;;;37.53;29.75;;;;;;;;;;6243053;28;20135;-66
2021/12/15 11:35:49;;;;;;;36.38;28.27;;;;;;;;;;6256456;28;20377;-66
2021/12/15 11:38:56;;;;;;;35.30;28.20;;;;;;;;;;6263715;28;20091;-66
2021/12/15 11:41:57;;;;;;;37.60;28.98;;;;;;;;;;6256566;28;20045;-66
2021/12/15 11:45:06;;;;;;;41.90;28.55;;;;;;;;;;6266721;28;20064;-66
2021/12/15 11:48:17;;;;;;;36.17;28.27;;;;;;;;;;6250115;28;20053;-65
2021/12/15 11:51:29;;;;;;;38.38;30.35;;;;;;;;;;6254900;28;20057;-65
2021/12/15 11:54:35;;;;;;;38.20;30.25;;;;;;;;;;6267048;28;22304;-64
2021/12/15 11:57:36;;;;;;;35.20;28.70;;;;;;;;;;6254308;28;20045;-65
2021/12/15 12:00:38;;;;;;;37.78;28.88;;;;;;;;;;6254157;28;20052;-64
2021/12/15 12:03:40;;;;;;;38.15;28.90;;;;;;;;;;6263727;28;20051;-64
2021/12/15 12:06:42;;;;;;;40.50;28.48;;;;;;;;;;6254437;28;20124;-65
2021/12/15 12:09:48;;;;;;;34.97;27.65;;;;;;;;;;6264100;28;20048;-65
2021/12/15 12:12:53;;;;;;;40.10;27.70;;;;;;;;;;6258075;28;20127;-64
2021/12/15 12:15:57;;;;;;;33.88;27.48;;;;;;;;;;6253902;28;20049;-65
2021/12/15 12:18:59;;;;;;;36.03;28.52;;;;;;;;;;6257163;28;20229;-65
2021/12/15 12:22:01;;;;;;;34.90;27.48;;;;;;;;;;6253468;28;20180;-65
2021/12/15 12:25:08;;;;;;;36.45;28.23;;;;;;;;;;6269097;28;20179;-65
2021/12/15 12:28:13;;;;;;;31.67;26.73;;;;;;;;;;6255923;28;20296;-65
2021/12/15 12:31:18;;;;;;;37.83;28.88;;;;;;;;;;6249657;28;20177;-65
2021/12/15 12:34:20;;;;;;;37.45;29.25;;;;;;;;;;6265591;28;20127;-65
2021/12/15 12:37:22;;;;;;;39.03;30.05;;;;;;;;;;6252238;28;20041;-66
2021/12/15 12:40:27;;;;;;;38.97;31.00;;;;;;;;;;6258551;28;20044;-66
2021/12/15 12:43:32;;;;;;;37.67;29.95;;;;;;;;;;6259984;28;20048;-66
2021/12/15 12:46:41;;;;;;;36.78;30.33;;;;;;;;;;6242737;28;20179;-66
2021/12/15 12:50:09;;;;;;;40.92;30.75;;;;;;;;;;6261004;28;20140;-65
2021/12/15 12:59:53;;;;;;;38.55;30.67;;;;;;;;;;6266478;28;20053;-65
2021/12/15 13:03:00;;;;;;;40.50;33.08;;;;;;;;;;6247648;28;20126;-65
2021/12/15 13:06:04;;;;;;;41.17;33.08;;;;;;;;;;6251163;28;20053;-65
2021/12/15 13:09:10;;;;;;;39.65;32.47;;;;;;;;;;6269370;28;20051;-65
2021/12/15 13:12:24;;;;;;;40.92;33.25;;;;;;;;;;6255796;28;20084;-65
2021/12/15 13:15:34;;;;;;;46.95;34.88;;;;;;;;;;6256575;28;20798;-65
2021/12/15 13:18:46;;;;;;;40.33;32.80;;;;;;;;;;6251783;28;20072;-65
2021/12/15 13:22:15;;;;;;;43.42;34.10;;;;;;;;;;6253669;28;20122;-65
2021/12/15 13:28:45;;;;;;;38.00;30.80;;;;;;;;;;6263439;28;20048;-66
2021/12/15 13:31:54;;;;;;;40.13;31.55;;;;;;;;;;6253160;28;20179;-65
2021/12/15 13:34:56;;;;;;;39.45;30.30;;;;;;;;;;6263561;28;20106;-65
2021/12/15 13:37:59;;;;;;;42.00;29.52;;;;;;;;;;6253189;28;20581;-66
2021/12/15 13:41:18;;;;;;;39.30;30.13;;;;;;;;;;6255153;28;20140;-66
2021/12/15 13:44:24;;;;;;;40.65;31.15;;;;;;;;;;6261753;28;20060;-66
2021/12/15 13:47:26;;;;;;;39.17;28.42;;;;;;;;;;6244350;28;20057;-65
2021/12/15 13:50:30;;;;;;;38.67;28.48;;;;;;;;;;6251827;28;20785;-66
2021/12/15 13:53:33;;;;;;;32.67;25.90;;;;;;;;;;6262122;28;20049;-65
2021/12/15 13:56:47;;;;;;;37.58;28.08;;;;;;;;;;6248431;28;20552;-65
2021/12/15 13:59:59;;;;;;;36.33;28.48;;;;;;;;;;6260587;28;20049;-66
2021/12/15 14:03:14;;;;;;;38.22;28.40;;;;;;;;;;6242751;28;20048;-66
2021/12/15 14:06:18;;;;;;;35.03;27.45;;;;;;;;;;6244617;28;20053;-66
2021/12/15 14:09:31;;;;;;;39.17;28.98;;;;;;;;;;6258347;28;20084;-66
2021/12/15 14:12:49;;;;;;;41.65;30.10;;;;;;;;;;6249789;28;20110;-65
2021/12/15 14:15:54;;;;;;;45.90;33.97;;;;;;;;;;6247596;28;20123;-65
2021/12/15 14:18:57;;;;;;;45.20;32.55;;;;;;;;;;6255200;28;20052;-66
2021/12/15 14:22:02;;;;;;;46.65;33.20;;;;;;;;;;6245062;28;20167;-66
2021/12/15 14:25:05;;;;;;;48.45;35.25;;;;;;;;;;6260541;28;20071;-66
2021/12/15 14:28:08;;;;;;;43.00;33.60;;;;;;;;;;6252287;28;20059;-66
2021/12/15 14:31:15;;;;;;;50.60;35.15;;;;;;;;;;6244175;28;20045;-66
2021/12/15 14:34:18;;;;;;;45.13;35.08;;;;;;;;;;6256091;28;20057;-65
2021/12/15 14:37:21;;;;;;;44.35;33.72;;;;;;;;;;6248544;28;20076;-66
2021/12/15 14:40:23;;;;;;;45.22;30.83;;;;;;;;;;6250329;28;20044;-66
2021/12/15 14:43:24;;;;;;;44.75;32.25;;;;;;;;;;6259958;28;20258;-66
2021/12/15 14:46:31;;;;;;;42.72;31.33;;;;;;;;;;6242220;28;20140;-66
2021/12/15 14:49:35;;;;;;;40.92;30.25;;;;;;;;;;6255595;28;20109;-65
2021/12/15 14:52:39;;;;;;;45.90;32.92;;;;;;;;;;6245506;28;20717;-66
2021/12/15 14:55:41;;;;;;;44.97;31.98;;;;;;;;;;6251033;28;21023;-66
2021/12/15 14:58:42;;;;;;;44.58;31.35;;;;;;;;;;6259504;28;20060;-67
2021/12/15 15:01:47;;;;;;;43.60;31.70;;;;;;;;;;6235192;28;20045;-66
2021/12/15 15:04:52;;;;;;;43.95;32.33;;;;;;;;;;6258058;28;20175;-66
2021/12/15 15:07:59;;;;;;;46.78;32.15;;;;;;;;;;6247068;28;20102;-67
2021/12/15 15:11:02;;;;;;;49.45;32.13;;;;;;;;;;6249356;28;20140;-66
2021/12/15 15:14:04;;;;;;;45.63;31.23;;;;;;;;;;6262078;28;20526;-67
2021/12/15 15:17:11;;;;;;;42.15;29.35;;;;;;;;;;6251296;28;20045;-66
2021/12/15 15:20:15;;;;;;;40.13;29.10;;;;;;;;;;6255183;28;20088;-67
2021/12/15 15:23:19;;;;;;;40.22;28.17;;;;;;;;;;6263854;28;20117;-65
2021/12/15 15:26:20;;;;;;;45.03;30.15;;;;;;;;;;6251084;28;20163;-66
2021/12/15 15:29:29;;;;;;;47.38;31.70;;;;;;;;;;6267621;28;20059;-69
2021/12/15 15:32:34;;;;;;;80.40;50.30;;;;;;;;;;6246522;28;20148;-68
2021/12/15 15:35:41;;;;;;;166.52;89.65;;;;;;;;;;6260748;28;20111;-67
2021/12/15 15:38:45;;;;;;;82.22;49.30;;;;;;;;;;6272057;28;20091;-67
2021/12/15 15:41:48;;;;;;;44.97;31.65;;;;;;;;;;6259007;28;20151;-67
2021/12/15 15:44:50;;;;;;;44.80;31.90;;;;;;;;;;6267572;28;20670;-67
2021/12/15 15:47:54;;;;;;;45.90;32.83;;;;;;;;;;6250274;28;20107;-67
2021/12/15 15:51:00;;;;;;;46.40;33.42;;;;;;;;;;6256236;28;20049;-67
2021/12/15 15:54:04;;;;;;;47.65;34.38;;;;;;;;;;6268770;28;20478;-67
2021/12/15 15:57:08;;;;;;;51.85;35.42;;;;;;;;;;6257955;28;20049;-66
2021/12/15 16:00:15;;;;;;;48.95;35.45;;;;;;;;;;6261662;28;20041;-67
2021/12/15 16:03:21;;;;;;;50.05;35.67;;;;;;;;;;6258623;28;20164;-66
2021/12/15 16:06:24;;;;;;;48.45;35.47;;;;;;;;;;6247607;28;20397;-66
2021/12/15 16:09:28;;;;;;;50.88;35.53;;;;;;;;;;6264551;28;20053;-66
2021/12/15 16:12:35;;;;;;;51.28;36.50;;;;;;;;;;6256108;28;20391;-66
2021/12/15 16:15:41;;;;;;;52.65;36.38;;;;;;;;;;6241899;28;20041;-66
2021/12/15 16:18:47;;;;;;;55.60;36.58;;;;;;;;;;6248982;28;20048;-66
2021/12/15 16:25:14;;;;;;;56.42;37.85;;;;;;;;;;6259273;28;20048;-66
2021/12/15 16:28:17;;;;;;;58.45;37.78;;;;;;;;;;6261850;28;20574;-66
2021/12/15 16:31:36;;;;;;;54.93;37.00;;;;;;;;;;6248496;28;20045;-66
2021/12/15 16:34:41;;;;;;;55.60;37.40;;;;;;;;;;6261546;28;20595;-66
2021/12/15 16:37:43;;;;;;;51.47;37.50;;;;;;;;;;6250471;28;20045;-66
2021/12/15 16:40:52;;;;;;;54.63;37.63;;;;;;;;;;6251135;28;20048;-66
2021/12/15 16:43:57;;;;;;;51.00;36.63;;;;;;;;;;6266271;28;20595;-66
2021/12/15 16:47:01;;;;;;;56.13;38.55;;;;;;;;;;6248802;28;20049;-66
2021/12/15 16:50:08;;;;;;;52.60;37.03;;;;;;;;;;6264559;28;20114;-67
2021/12/15 16:53:12;;;;;;;63.38;39.53;;;;;;;;;;6256717;28;20489;-66
2021/12/15 16:56:21;;;;;;;59.73;37.83;;;;;;;;;;6243611;28;20245;-66
2021/12/15 16:59:25;;;;;;;57.67;39.13;;;;;;;;;;6263217;28;20088;-66
2021/12/15 17:02:28;;;;;;;59.88;37.78;;;;;;;;;;6243705;28;20049;-67
2021/12/15 17:05:34;;;;;;;54.10;37.10;;;;;;;;;;6248814;28;20569;-66
2021/12/15 17:08:42;;;;;;;59.63;38.88;;;;;;;;;;6259039;28;20467;-66
2021/12/15 17:11:43;;;;;;;55.40;38.50;;;;;;;;;;6250858;28;20117;-66
2021/12/15 17:14:52;;;;;;;57.13;37.67;;;;;;;;;;6260329;28;20045;-66
2021/12/15 17:17:55;;;;;;;53.72;36.22;;;;;;;;;;6243755;28;20068;-66
2021/12/15 17:21:01;;;;;;;53.40;37.92;;;;;;;;;;6239977;28;20132;-66
2021/12/15 17:24:07;;;;;;;52.83;36.80;;;;;;;;;;6257932;28;20049;-66
2021/12/15 17:27:08;;;;;;;55.63;35.90;;;;;;;;;;6251764;28;20462;-66
2021/12/15 17:30:25;;;;;;;53.30;35.17;;;;;;;;;;6256311;28;20170;-66
2021/12/15 17:33:31;;;;;;;54.25;35.10;;;;;;;;;;6251609;28;20962;-66
2021/12/15 17:36:37;;;;;;;55.15;35.72;;;;;;;;;;6248893;28;20040;-66
2021/12/15 17:39:41;;;;;;;50.10;34.08;;;;;;;;;;6251257;28;20416;-66
2021/12/15 17:42:43;;;;;;;51.90;35.42;;;;;;;;;;6250870;28;20032;-66
2021/12/15 17:45:45;;;;;;;49.88;33.88;;;;;;;;;;6241026;28;20190;-66
2021/12/15 17:48:56;;;;;;;45.28;32.63;;;;;;;;;;6247714;28;20049;-66
2021/12/15 17:52:05;;;;;;;47.63;31.35;;;;;;;;;;6244683;28;20454;-66
2021/12/15 17:55:11;;;;;;;51.10;33.17;;;;;;;;;;6253338;28;20374;-66
2021/12/15 17:58:15;;;;;;;46.90;32.35;;;;;;;;;;6253570;28;20049;-65
2021/12/15 18:01:17;;;;;;;;;;;;;;;;;;6243312;28;20067;-66
2021/12/15 18:04:20;;;;;;;45.70;29.80;;;;;;;;;;6254800;28;20370;-65
2021/12/15 18:07:24;;;;;;;41.28;28.45;;;;;;;;;;6246581;28;20061;-66
2021/12/15 18:10:36;;;;;;;43.07;27.63;;;;;;;;;;6251000;28;20155;-66
2021/12/15 18:13:40;;;;;;;39.88;26.92;;;;;;;;;;6259194;28;20099;-66
2021/12/15 18:16:42;;;;;;;42.75;27.48;;;;;;;;;;6243598;28;20132;-66
2021/12/15 18:19:46;;;;;;;43.55;27.88;;;;;;;;;;6259603;28;20049;-66
2021/12/15 18:22:49;;;;;;;43.05;28.20;;;;;;;;;;6247461;28;20071;-66
2021/12/15 18:25:51;;;;;;;47.72;28.10;;;;;;;;;;6251611;28;20045;-66
2021/12/15 18:28:53;;;;;;;43.83;28.10;;;;;;;;;;6259207;28;20132;-66
2021/12/15 18:31:59;;;;;;;41.20;28.27;;;;;;;;;;6246714;28;20139;-66
2021/12/15 18:35:01;;;;;;;41.50;27.95;;;;;;;;;;6253942;28;20048;-66
2021/12/15 18:38:05;;;;;;;39.72;27.02;;;;;;;;;;6243935;28;20131;-66
2021/12/15 18:41:11;;;;;;;37.33;26.10;;;;;;;;;;6249971;28;20037;-66
2021/12/15 18:44:12;;;;;;;48.13;31.70;;;;;;;;;;6257617;28;20404;-66
2021/12/15 18:47:14;;;;;;;51.72;32.70;;;;;;;;;;6244840;28;20044;-66
2021/12/15 18:50:19;;;;;;;51.33;33.63;;;;;;;;;;6246949;28;20040;-66
2021/12/15 18:53:22;;;;;;;64.30;39.10;;;;;;;;;;6255432;28;20055;-65
2021/12/15 18:56:24;;;;;;;60.60;38.47;;;;;;;;;;6249588;28;20056;-66
2021/12/15 18:59:26;;;;;;;60.70;38.05;;;;;;;;;;6260927;28;20052;-65
2021/12/15 19:02:29;;;;;;;65.15;40.10;;;;;;;;;;6241324;28;20098;-65
2021/12/15 19:05:30;;;;;;;64.00;41.45;;;;;;;;;;6247191;28;20134;-65
2021/12/15 19:08:34;;;;;;;63.47;41.10;;;;;;;;;;6256650;28;20204;-65